Fort Liard, Canada
Current Conditions -  °F | °C
As of 12:00 AM on Tuesday 21 Oct 2014 (Local Time) from CYYE Reporting Station
Moderate Fog Moderate Fog  
Wind Chill:   Ceiling: 200
Heat Index:   Visibility: 0.25mi
Dew Point:   Wind: 3mph
Humidity: 100%   Direction: 70°ENE
Pressure: 29.4"   Gusts: NA
Location:  60.23°N, 123.48°W
Report Text: CYYE 210600Z 07003KT 340V080 1/4SM FG OVC002 00/00 A2940 RMK FG6ST2 SLP974
Loading
Personal Weather Stations






























Interactive Weather Map
Tropical Storm Tracking
New forecast layout! Learn more

10-Day Weather Forecast

Advertisements
Track Severe Weather on mobile